Time;durP1;ratioP1;P1;durP2;ratioP2;P2;SDS_P1;SDS_P2;PMS_P1;PMS_P2;Temp;Humidity;BMP_temperature;BMP_pressure;BME280_temperature;BME280_humidity;BME280_pressure;Samples;Min_cycle;Max_cycle;Signal;HPM_P1;HPM_P2
2021/01/23 00:00:10;;;;;;;6.70;1.20;;;11.30;99.90;;;;;;4994037;28;20049;-75
2021/01/23 00:02:37;;;;;;;14.40;5.55;;;11.20;99.90;;;;;;5012456;28;20029;-76
2021/01/23 00:05:05;;;;;;;11.77;4.32;;;11.70;99.90;;;;;;5012026;28;20041;-75
2021/01/23 00:07:32;;;;;;;4.22;0.95;;;12.10;99.90;;;;;;5012637;28;20025;-76
2021/01/23 00:09:59;;;;;;;10.57;2.15;;;12.50;99.90;;;;;;5012245;28;20478;-75
2021/01/23 00:12:26;;;;;;;9.85;4.75;;;13.00;99.90;;;;;;5012333;28;20030;-76
2021/01/23 00:14:53;;;;;;;4.60;1.02;;;13.30;99.90;;;;;;5012296;28;20022;-76
2021/01/23 00:17:19;;;;;;;4.13;0.95;;;12.80;99.90;;;;;;5013146;28;20404;-76
2021/01/23 00:19:47;;;;;;;5.03;1.05;;;13.30;99.90;;;;;;5010973;28;20038;-76
2021/01/23 00:22:14;;;;;;;10.10;3.20;;;13.10;99.90;;;;;;4994012;28;20037;-77
2021/01/23 00:24:41;;;;;;;5.38;0.90;;;12.30;99.90;;;;;;5010799;28;20053;-76
2021/01/23 00:27:08;;;;;;;3.75;0.88;;;11.90;99.90;;;;;;5010927;28;20042;-76
2021/01/23 00:29:35;;;;;;;4.05;0.82;;;11.50;99.90;;;;;;5011009;28;20030;-76
2021/01/23 00:32:02;;;;;;;4.35;0.90;;;11.30;99.90;;;;;;5011920;28;20034;-76
2021/01/23 00:34:29;;;;;;;3.25;0.82;;;11.00;99.90;;;;;;5010901;28;20038;-75
2021/01/23 00:36:56;;;;;;;1.77;0.70;;;10.80;99.90;;;;;;5011703;28;20485;-76
2021/01/23 00:39:23;;;;;;;3.47;0.40;;;10.40;99.90;;;;;;5011882;28;20528;-75
2021/01/23 00:41:50;;;;;;;3.38;0.70;;;10.10;99.90;;;;;;5012017;28;20053;-72
2021/01/23 00:44:16;;;;;;;6.35;0.63;;;9.80;99.90;;;;;;5011050;28;20030;-76
2021/01/23 00:46:43;;;;;;;2.97;0.60;;;9.80;99.90;;;;;;5012151;28;20045;-74
2021/01/23 00:49:10;;;;;;;5.25;0.95;;;9.70;99.90;;;;;;5011844;28;20463;-74
2021/01/23 00:51:42;;;;;;;5.38;0.80;;;9.60;99.90;;;;;;5011970;28;20061;-75
2021/01/23 00:54:11;;;;;;;3.53;1.50;;;9.30;99.90;;;;;;5011115;28;20037;-76
2021/01/23 00:56:38;;;;;;;7.20;2.55;;;9.20;99.90;;;;;;5011443;28;20033;-71
2021/01/23 00:59:05;;;;;;;5.88;1.33;;;9.20;99.90;;;;;;5010485;28;20038;-72
2021/01/23 01:01:32;;;;;;;6.13;3.15;;;9.00;99.90;;;;;;5005665;28;20486;-71
2021/01/23 01:03:59;;;;;;;5.30;1.35;;;8.90;99.90;;;;;;5010342;28;20030;-73
2021/01/23 01:06:26;;;;;;;6.72;1.60;;;8.80;99.90;;;;;;5010593;28;20533;-71
2021/01/23 01:08:53;;;;;;;2.85;0.80;;;8.70;99.90;;;;;;5011001;28;20045;-71
2021/01/23 01:11:20;;;;;;;2.08;0.85;;;8.60;99.90;;;;;;5010630;28;20030;-71
2021/01/23 01:13:47;;;;;;;6.28;2.17;;;8.40;99.90;;;;;;5010941;28;20026;-71
2021/01/23 01:16:14;;;;;;;3.97;0.82;;;8.30;99.90;;;;;;5010808;28;20030;-72
2021/01/23 01:18:43;;;;;;;2.35;0.90;;;8.10;99.90;;;;;;5010547;28;20045;-71
2021/01/23 01:21:10;;;;;;;8.68;3.00;;;7.80;99.90;;;;;;5011397;28;20038;-70
2021/01/23 01:23:38;;;;;;;10.27;2.78;;;7.70;99.90;;;;;;5011561;28;20026;-73
2021/01/23 01:26:06;;;;;;;5.78;2.08;;;7.60;99.90;;;;;;5010209;28;20055;-73
2021/01/23 01:28:33;;;;;;;4.90;2.08;;;7.50;99.90;;;;;;5010482;28;20042;-73
2021/01/23 01:30:59;;;;;;;8.00;1.17;;;7.50;99.90;;;;;;4993169;28;20034;-73
2021/01/23 01:33:26;;;;;;;3.35;1.15;;;7.50;99.90;;;;;;5011195;28;20033;-73
2021/01/23 01:35:53;;;;;;;5.72;2.42;;;7.50;99.90;;;;;;5010232;28;20046;-73
2021/01/23 01:38:20;;;;;;;6.40;1.98;;;7.50;99.90;;;;;;5011206;28;20037;-73
2021/01/23 01:40:47;;;;;;;3.95;2.20;;;7.40;99.90;;;;;;5011120;28;20030;-72
2021/01/23 01:43:17;;;;;;;4.57;4.18;;;7.30;99.90;;;;;;5010609;28;20053;-73
2021/01/23 01:45:45;;;;;;;10.75;7.10;;;7.20;99.90;;;;;;5012840;28;20046;-74
2021/01/23 01:48:13;;;;;;;9.90;5.07;;;7.00;99.90;;;;;;5011829;28;20378;-75
2021/01/23 01:50:41;;;;;;;7.55;2.55;;;7.00;99.90;;;;;;4993066;28;20042;-73
2021/01/23 01:53:08;;;;;;;4.35;2.60;;;6.90;99.90;;;;;;5010546;28;20402;-73
2021/01/23 01:55:35;;;;;;;6.28;3.58;;;7.00;99.90;;;;;;5011106;28;20041;-73
2021/01/23 01:58:03;;;;;;;6.38;4.07;;;6.80;99.90;;;;;;5010935;28;20021;-73
2021/01/23 02:00:30;;;;;;;25.38;9.02;;;6.80;99.90;;;;;;5008235;28;20398;-73
2021/01/23 02:03:46;;;;;;;12.30;4.25;;;6.70;99.90;;;;;;5011013;28;20029;-72
2021/01/23 02:06:24;;;;;;;7.70;3.20;;;6.70;99.90;;;;;;4912560;29;20406;-72
2021/01/23 02:09:03;;;;;;;23.38;7.68;;;6.70;99.90;;;;;;4912156;29;20048;-71
2021/01/23 02:11:59;;;;;;;8.30;2.97;;;6.60;99.90;;;;;;4912048;29;20052;-73
2021/01/23 02:14:38;;;;;;;2.75;1.73;;;6.60;99.90;;;;;;4855495;29;20042;-72
2021/01/23 02:17:09;;;;;;;3.38;2.00;;;6.50;99.90;;;;;;4870745;29;20045;-72
2021/01/23 02:20:14;;;;;;;4.13;1.90;;;6.50;99.90;;;;;;4877659;29;20041;-70
2021/01/23 02:22:40;;;;;;;8.00;3.95;;;6.50;99.90;;;;;;4878056;29;20049;-74
2021/01/23 02:25:08;;;;;;;8.30;3.83;;;6.50;99.90;;;;;;4860299;29;20041;-74
2021/01/23 02:27:55;;;;;;;14.00;5.38;;;6.50;99.90;;;;;;4859352;29;20041;-73
2021/01/23 02:30:28;;;;;;;9.02;4.43;;;6.60;99.90;;;;;;4857926;29;20049;-74
2021/01/23 02:32:58;;;;;;;10.48;6.05;;;6.60;99.90;;;;;;4864341;29;20103;-73
2021/01/23 02:35:26;;;;;;;9.43;4.55;;;6.60;99.90;;;;;;4858498;29;20042;-73
2021/01/23 02:37:54;;;;;;;8.43;5.13;;;6.60;99.90;;;;;;4858805;29;20046;-74
2021/01/23 02:40:22;;;;;;;8.10;5.00;;;6.60;99.90;;;;;;4858339;29;20045;-74
2021/01/23 02:42:49;;;;;;;9.77;4.28;;;6.60;99.90;;;;;;4875198;29;20055;-73
2021/01/23 02:45:22;;;;;;;68.72;58.00;;;6.40;99.90;;;;;;4930289;29;20040;-72
2021/01/23 02:47:49;;;;;;;37.33;27.60;;;6.50;99.90;;;;;;4933851;29;20040;-73
2021/01/23 02:50:17;;;;;;;7.07;3.83;;;6.50;99.90;;;;;;4933698;29;20051;-74
2021/01/23 02:53:07;;;;;;;7.78;3.00;;;6.50;99.90;;;;;;5009397;28;20046;-72
2021/01/23 02:55:39;;;;;;;6.32;3.47;;;6.40;99.90;;;;;;4994954;28;20034;-75
2021/01/23 02:58:08;;;;;;;6.20;3.25;;;6.50;99.90;;;;;;5013147;28;20466;-71
2021/01/23 03:00:36;;;;;;;6.13;2.88;;;6.40;99.90;;;;;;5013253;28;20082;-73
2021/01/23 03:03:04;;;;;;;8.77;3.90;;;6.40;99.90;;;;;;4994661;28;20046;-73
2021/01/23 03:05:34;;;;;;;5.40;3.28;;;6.40;99.90;;;;;;5012923;28;20029;-73
2021/01/23 03:08:01;;;;;;;8.68;2.63;;;6.40;99.90;;;;;;5012759;28;20042;-73
2021/01/23 03:10:37;;;;;;;5.47;2.33;;;6.30;99.90;;;;;;5012811;28;20026;-72
2021/01/23 03:13:04;;;;;;;8.40;6.22;;;6.30;99.90;;;;;;5013831;28;20386;-74
2021/01/23 03:15:32;;;;;;;10.30;6.20;;;6.30;99.90;;;;;;5015438;28;20168;-73
2021/01/23 03:18:00;;;;;;;6.57;2.80;;;6.30;99.90;;;;;;5013312;28;20422;-73
2021/01/23 03:20:28;;;;;;;6.75;3.50;;;6.30;99.90;;;;;;5012598;28;20026;-73
2021/01/23 03:22:59;;;;;;;4.97;3.30;;;6.30;99.90;;;;;;4994773;28;20425;-73
2021/01/23 03:25:27;;;;;;;6.88;2.65;;;6.30;99.90;;;;;;5011657;28;20393;-73
2021/01/23 03:27:55;;;;;;;5.10;1.50;;;6.20;99.90;;;;;;5011884;28;20041;-72
2021/01/23 03:30:22;;;;;;;8.32;3.40;;;6.20;99.90;;;;;;5011681;28;20026;-72
2021/01/23 03:32:50;;;;;;;6.88;2.45;;;6.30;99.90;;;;;;5011560;28;20045;-73
2021/01/23 03:35:18;;;;;;;3.92;1.35;;;6.20;99.90;;;;;;5011686;28;20042;-72
2021/01/23 03:37:45;;;;;;;3.13;1.80;;;6.20;99.90;;;;;;5012978;28;20061;-73
2021/01/23 03:40:13;;;;;;;9.70;3.25;;;6.20;99.90;;;;;;5012519;28;20030;-73
2021/01/23 03:42:40;;;;;;;4.80;2.03;;;6.20;99.90;;;;;;5011003;28;20041;-73
2021/01/23 03:45:08;;;;;;;3.47;2.20;;;6.20;99.90;;;;;;4978222;28;20039;-73
2021/01/23 03:47:36;;;;;;;6.05;1.83;;;6.20;99.90;;;;;;5012434;28;20041;-72
2021/01/23 03:50:05;;;;;;;9.18;3.55;;;6.20;99.90;;;;;;5011968;28;20022;-74
2021/01/23 03:52:32;;;;;;;6.72;3.17;;;6.20;99.90;;;;;;4993531;28;20045;-74
2021/01/23 03:54:59;;;;;;;6.03;2.30;;;6.10;99.90;;;;;;5012034;28;20478;-74
2021/01/23 03:57:26;;;;;;;7.80;3.80;;;6.10;99.90;;;;;;5011484;28;20034;-73
2021/01/23 03:59:53;;;;;;;11.93;6.60;;;6.00;99.90;;;;;;4993790;28;20042;-72
2021/01/23 04:02:20;;;;;;;10.50;4.90;;;6.00;99.90;;;;;;5009019;28;20038;-72
2021/01/23 04:04:47;;;;;;;12.25;5.40;;;5.90;99.90;;;;;;4992588;28;20459;-72
2021/01/23 04:07:14;;;;;;;10.60;4.80;;;5.90;99.90;;;;;;5002518;28;20026;-72
2021/01/23 04:09:41;;;;;;;9.73;4.45;;;5.90;99.90;;;;;;5012243;28;20029;-72
2021/01/23 04:12:08;;;;;;;17.58;7.65;;;5.90;99.90;;;;;;5010527;28;20388;-71
2021/01/23 04:14:35;;;;;;;20.35;9.85;;;5.90;99.90;;;;;;5011774;28;20037;-73
2021/01/23 04:17:02;;;;;;;24.70;13.80;;;5.70;99.90;;;;;;5012068;28;20034;-72
2021/01/23 04:19:29;;;;;;;13.40;6.05;;;5.70;99.90;;;;;;5010218;28;20045;-72
2021/01/23 04:21:56;;;;;;;11.10;5.53;;;5.80;99.90;;;;;;5010573;28;20045;-72
2021/01/23 04:24:23;;;;;;;3.55;1.25;;;5.90;99.90;;;;;;4993215;28;20049;-72
2021/01/23 04:26:50;;;;;;;5.97;1.00;;;6.00;99.90;;;;;;5010916;28;20038;-72
2021/01/23 04:29:18;;;;;;;2.65;0.82;;;5.90;99.90;;;;;;5010832;28;20399;-72
2021/01/23 04:31:45;;;;;;;5.80;0.70;;;5.90;99.90;;;;;;5011481;28;20370;-72
2021/01/23 04:34:12;;;;;;;3.00;0.93;;;5.90;99.90;;;;;;4994110;28;20022;-73
2021/01/23 04:36:38;;;;;;;4.45;1.00;;;5.90;99.90;;;;;;5011732;28;20042;-72
2021/01/23 04:39:05;;;;;;;11.00;6.20;;;5.80;99.90;;;;;;4992138;28;20042;-72
2021/01/23 04:41:32;;;;;;;4.32;2.72;;;5.80;99.90;;;;;;5011655;28;20038;-71
2021/01/23 04:43:59;;;;;;;3.80;2.25;;;5.70;99.90;;;;;;5013113;28;20037;-73
2021/01/23 04:46:26;;;;;;;5.13;2.60;;;5.70;99.90;;;;;;5013643;28;20069;-71
2021/01/23 04:48:53;;;;;;;5.45;2.30;;;5.60;99.90;;;;;;5012063;28;20029;-71
2021/01/23 04:51:20;;;;;;;8.27;2.55;;;5.60;99.90;;;;;;5010175;28;20402;-72
2021/01/23 04:53:48;;;;;;;7.20;3.20;;;5.60;99.90;;;;;;4976697;28;20105;-72
2021/01/23 04:56:15;;;;;;;9.68;2.85;;;5.70;99.90;;;;;;5010853;28;20034;-72
2021/01/23 04:58:42;;;;;;;7.70;2.53;;;5.90;99.90;;;;;;5011280;28;20382;-72
2021/01/23 05:01:15;;;;;;;6.32;1.52;;;5.90;99.90;;;;;;5011094;28;20030;-74
2021/01/23 05:03:56;;;;;;;3.65;1.35;;;6.00;99.90;;;;;;5010519;28;20029;-71
2021/01/23 05:06:23;;;;;;;3.83;2.10;;;6.00;99.90;;;;;;5005964;28;20038;-72
2021/01/23 05:08:50;;;;;;;6.72;2.45;;;6.10;99.90;;;;;;5011014;28;20034;-72
2021/01/23 05:11:18;;;;;;;5.95;2.22;;;6.10;99.90;;;;;;4992606;28;20041;-72
2021/01/23 05:14:12;;;;;;;3.10;1.20;;;6.20;99.90;;;;;;5010127;28;20053;-72
2021/01/23 05:16:40;;;;;;;1.85;1.05;;;6.20;99.90;;;;;;5011183;28;20037;-77
2021/01/23 05:19:07;;;;;;;2.85;0.82;;;6.20;99.90;;;;;;5010853;28;20034;-73
2021/01/23 05:21:35;;;;;;;3.05;1.10;;;6.20;99.90;;;;;;5010660;28;20030;-71
2021/01/23 05:24:07;;;;;;;2.35;0.80;;;6.30;99.90;;;;;;5010861;28;20034;-72
2021/01/23 05:26:35;;;;;;;4.00;1.83;;;6.30;99.90;;;;;;5010232;28;20042;-72
2021/01/23 05:29:10;;;;;;;4.35;1.80;;;6.30;99.90;;;;;;5010892;28;20360;-72
2021/01/23 05:31:38;;;;;;;4.70;1.30;;;6.30;99.90;;;;;;5009343;28;20046;-71
2021/01/23 05:34:30;;;;;;;2.22;1.00;;;6.40;99.90;;;;;;5009896;28;20034;-71
2021/01/23 05:36:57;;;;;;;;;;;6.50;99.90;;;;;;5011254;28;20030;-70
2021/01/23 05:39:45;;;;;;;1.95;0.80;;;6.50;99.90;;;;;;5010123;28;19905;-71
2021/01/23 05:42:12;;;;;;;4.90;1.00;;;6.50;99.90;;;;;;5006409;28;20049;-71
2021/01/23 05:44:39;;;;;;;2.78;0.90;;;6.60;99.90;;;;;;5008438;28;20038;-71
2021/01/23 05:47:26;;;;;;;4.28;1.02;;;6.60;99.90;;;;;;5010101;28;20050;-71
2021/01/23 05:49:54;;;;;;;2.30;0.93;;;6.60;99.90;;;;;;5012527;28;20410;-72
2021/01/23 05:52:22;;;;;;;3.22;1.20;;;6.70;99.90;;;;;;5013874;28;20057;-72
2021/01/23 05:54:49;;;;;;;2.63;1.30;;;6.70;99.90;;;;;;4996240;28;20029;-71
2021/01/23 05:57:16;;;;;;;1.92;1.00;;;6.70;99.90;;;;;;5014784;28;20029;-72
2021/01/23 05:59:44;;;;;;;4.72;1.20;;;6.70;99.90;;;;;;5014698;28;20034;-73
2021/01/23 06:02:14;;;;;;;1.98;1.05;;;6.80;99.90;;;;;;5013774;28;20057;-72
2021/01/23 06:04:42;;;;;;;3.85;1.92;;;6.70;99.90;;;;;;5013765;28;20418;-71
2021/01/23 06:07:10;;;;;;;3.63;2.05;;;6.60;99.90;;;;;;5014763;28;20347;-72
2021/01/23 06:09:44;;;;;;;2.20;1.52;;;6.60;99.90;;;;;;5007901;28;20030;-72
2021/01/23 06:12:36;;;;;;;2.38;1.45;;;6.70;99.90;;;;;;4983328;28;20038;-71
2021/01/23 06:15:28;;;;;;;;;;;6.80;99.90;;;;;;5005001;28;20048;-70
2021/01/23 06:17:55;;;;;;;3.60;1.73;;;6.80;99.90;;;;;;4997387;28;19906;-71
2021/01/23 06:20:40;;;;;;;2.08;1.38;;;6.80;99.90;;;;;;5014216;28;20030;-70
2021/01/23 06:23:07;;;;;;;2.17;1.50;;;6.90;99.90;;;;;;5013428;28;20057;-71
2021/01/23 06:25:53;;;;;;;2.05;1.65;;;7.00;99.90;;;;;;5014176;28;20029;-70
2021/01/23 06:28:26;;;;;;;3.97;1.65;;;6.90;99.90;;;;;;5013243;28;20048;-72
2021/01/23 06:30:53;;;;;;;4.32;1.30;;;6.80;99.90;;;;;;5013957;28;20033;-71
2021/01/23 06:33:23;;;;;;;1.73;1.10;;;6.70;99.90;;;;;;5014010;28;20022;-71
2021/01/23 06:36:02;;;;;;;2.90;1.50;;;6.80;99.90;;;;;;5013786;28;20025;-71
2021/01/23 06:38:29;;;;;;;4.47;1.55;;;6.70;99.90;;;;;;5014301;28;20467;-71
2021/01/23 06:40:56;;;;;;;4.72;1.55;;;6.60;99.90;;;;;;5013701;28;20045;-71
2021/01/23 06:43:23;;;;;;;2.28;1.38;;;6.60;99.90;;;;;;5012700;28;20064;-72
2021/01/23 06:45:50;;;;;;;2.22;1.20;;;6.60;99.90;;;;;;5013922;28;20656;-70
2021/01/23 06:48:17;;;;;;;3.10;1.10;;;6.60;99.90;;;;;;5012466;28;20046;-72
2021/01/23 06:50:44;;;;;;;5.10;1.40;;;6.60;99.90;;;;;;4995840;28;20041;-73
2021/01/23 06:53:21;;;;;;;2.13;1.40;;;6.60;99.90;;;;;;5013901;28;20497;-71
2021/01/23 06:55:49;;;;;;;7.35;1.85;;;6.50;99.90;;;;;;5013091;28;20033;-70
2021/01/23 06:58:27;;;;;;;4.72;1.65;;;6.60;99.90;;;;;;5012311;28;20030;-71
2021/01/23 07:00:59;;;;;;;3.55;1.80;;;6.70;99.90;;;;;;5011943;28;20030;-71
2021/01/23 07:03:31;;;;;;;4.40;1.55;;;6.70;99.90;;;;;;4994323;28;20053;-71
2021/01/23 07:06:04;;;;;;;5.40;2.35;;;6.70;99.90;;;;;;5013219;28;20386;-71
2021/01/23 07:08:37;;;;;;;9.77;2.25;;;6.60;99.90;;;;;;4994957;28;20055;-70
2021/01/23 07:11:21;;;;;;;10.63;3.25;;;6.50;99.90;;;;;;5012552;28;20041;-70
2021/01/23 07:14:02;;;;;;;3.17;1.50;;;6.40;99.90;;;;;;5002468;28;20022;-70
2021/01/23 07:16:31;;;;;;;4.18;1.38;;;6.30;99.90;;;;;;5012333;28;20025;-70
2021/01/23 07:19:01;;;;;;;1.95;1.20;;;6.30;99.90;;;;;;5012817;28;20030;-70
2021/01/23 07:21:31;;;;;;;2.95;0.90;;;6.30;99.90;;;;;;5012605;28;20060;-71
2021/01/23 07:23:58;;;;;;;3.50;0.82;;;6.30;99.90;;;;;;5011375;28;20490;-71
2021/01/23 07:26:28;;;;;;;3.22;1.05;;;6.30;99.90;;;;;;5012948;28;20041;-70
2021/01/23 07:28:56;;;;;;;2.30;1.23;;;6.30;99.90;;;;;;5011823;28;20038;-70
2021/01/23 07:31:24;;;;;;;3.00;1.45;;;6.30;99.90;;;;;;5012855;28;20041;-72
2021/01/23 07:33:52;;;;;;;8.13;2.78;;;6.30;99.90;;;;;;4994017;28;20038;-71
2021/01/23 07:36:38;;;;;;;5.40;1.90;;;6.20;99.90;;;;;;4994471;28;20042;-71
2021/01/23 07:39:07;;;;;;;3.42;1.40;;;6.10;99.90;;;;;;4994993;28;20029;-71
2021/01/23 07:41:36;;;;;;;2.47;1.42;;;6.20;99.90;;;;;;5012390;28;20034;-71
2021/01/23 07:44:05;;;;;;;3.25;1.30;;;6.20;99.90;;;;;;5012483;28;20034;-70
2021/01/23 07:46:37;;;;;;;4.07;1.40;;;6.30;99.90;;;;;;5013097;28;20046;-70
2021/01/23 07:49:04;;;;;;;6.43;1.42;;;6.20;99.90;;;;;;5014554;28;20037;-70
2021/01/23 07:51:31;;;;;;;3.53;1.20;;;6.20;99.90;;;;;;5012271;28;20092;-70
2021/01/23 07:54:07;;;;;;;3.92;1.30;;;6.20;99.90;;;;;;5012368;28;20049;-70
2021/01/23 07:56:35;;;;;;;4.32;1.40;;;6.20;99.90;;;;;;5012455;28;20045;-70
2021/01/23 07:59:02;;;;;;;6.53;1.60;;;6.10;99.90;;;;;;5011223;28;20047;-70
2021/01/23 08:01:29;;;;;;;7.20;1.90;;;6.10;99.90;;;;;;5012522;28;20026;-70
2021/01/23 08:03:56;;;;;;;4.78;1.60;;;6.10;99.90;;;;;;5011041;28;20037;-70
2021/01/23 08:06:24;;;;;;;3.60;1.67;;;6.00;99.90;;;;;;5011508;28;20509;-70
2021/01/23 08:08:55;;;;;;;5.53;1.60;;;6.00;99.90;;;;;;5012271;28;20494;-70
2021/01/23 08:11:41;;;;;;;4.68;1.95;;;6.00;99.90;;;;;;5011756;28;20037;-71
2021/01/23 08:14:13;;;;;;;5.68;2.53;;;6.00;99.90;;;;;;5000146;28;20042;-70
2021/01/23 08:16:54;;;;;;;4.45;2.58;;;6.00;99.90;;;;;;4992158;28;20376;-70
2021/01/23 08:19:21;;;;;;;8.85;4.50;;;6.10;99.90;;;;;;5009546;28;20045;-70
2021/01/23 08:22:07;;;;;;;8.93;4.40;;;6.10;99.90;;;;;;5010532;28;20041;-71
2021/01/23 08:24:35;;;;;;;11.10;6.05;;;6.30;99.90;;;;;;5012188;28;20048;-70
2021/01/23 08:27:15;;;;;;;13.98;8.20;;;6.30;99.90;;;;;;5007553;28;20045;-71
2021/01/23 08:29:46;;;;;;;10.07;5.63;;;6.40;99.90;;;;;;5011640;28;20030;-70
2021/01/23 08:32:14;;;;;;;12.20;6.50;;;6.30;99.90;;;;;;5011980;28;20030;-71
2021/01/23 08:34:42;;;;;;;11.15;7.07;;;6.40;99.90;;;;;;5012011;28;20348;-70
2021/01/23 08:37:09;;;;;;;11.75;6.72;;;6.40;99.90;;;;;;5011573;28;20026;-70
2021/01/23 08:39:48;;;;;;;11.85;6.70;;;6.30;99.90;;;;;;5011686;28;20041;-70
2021/01/23 08:42:17;;;;;;;11.63;5.63;;;6.20;99.90;;;;;;5011129;28;20050;-70
2021/01/23 08:44:44;;;;;;;14.18;6.75;;;6.20;99.90;;;;;;5011076;28;20046;-71
2021/01/23 08:47:11;;;;;;;14.93;8.32;;;6.20;99.90;;;;;;5010125;28;20529;-70
2021/01/23 08:49:38;;;;;;;16.92;9.63;;;6.20;99.90;;;;;;5011100;28;20034;-70
2021/01/23 08:52:05;;;;;;;11.32;6.30;;;6.30;99.90;;;;;;5011654;28;20350;-70
2021/01/23 08:54:31;;;;;;;6.90;5.35;;;6.20;99.90;;;;;;5010456;28;20386;-71
2021/01/23 08:57:04;;;;;;;10.07;5.45;;;6.30;99.90;;;;;;5010984;28;20030;-70
2021/01/23 08:59:31;;;;;;;13.63;6.55;;;6.30;99.90;;;;;;5011059;28;20041;-70
2021/01/23 09:01:58;;;;;;;10.30;5.10;;;6.20;99.90;;;;;;4997235;28;20026;-70
2021/01/23 09:04:25;;;;;;;8.65;4.30;;;6.20;99.90;;;;;;5010779;28;20038;-70
2021/01/23 09:06:51;;;;;;;10.48;4.40;;;6.10;99.90;;;;;;5011467;28;20375;-72
2021/01/23 09:09:18;;;;;;;8.75;4.18;;;6.10;99.90;;;;;;5011140;28;20470;-70
2021/01/23 09:11:45;;;;;;;10.80;4.50;;;6.10;99.90;;;;;;5010490;28;20041;-71
2021/01/23 09:14:12;;;;;;;11.68;4.63;;;6.10;99.90;;;;;;5009671;28;20049;-72
2021/01/23 09:16:39;;;;;;;9.00;3.75;;;6.20;99.90;;;;;;5011271;28;20041;-72
2021/01/23 09:19:06;;;;;;;6.53;3.70;;;6.10;99.90;;;;;;5010867;28;20049;-72
2021/01/23 09:21:33;;;;;;;11.02;4.45;;;6.20;99.90;;;;;;5012535;28;20026;-71
2021/01/23 09:24:00;;;;;;;12.70;4.68;;;6.20;99.90;;;;;;5011521;28;20069;-70
2021/01/23 09:26:27;;;;;;;12.45;5.90;;;6.00;99.90;;;;;;5014157;28;20088;-70
2021/01/23 09:28:54;;;;;;;11.38;5.32;;;5.90;99.90;;;;;;5014493;28;20391;-70
2021/01/23 09:31:21;;;;;;;15.43;5.95;;;5.90;99.90;;;;;;5014575;28;20045;-71
2021/01/23 09:33:50;;;;;;;13.80;6.13;;;5.90;99.90;;;;;;5015106;28;20033;-71
2021/01/23 09:36:17;;;;;;;16.95;8.50;;;5.80;99.90;;;;;;5015095;28;20026;-71
2021/01/23 09:38:44;;;;;;;15.02;6.82;;;5.90;99.90;;;;;;5014757;28;20390;-71
2021/01/23 09:41:11;;;;;;;12.20;7.10;;;5.90;99.90;;;;;;5015050;28;20029;-71
2021/01/23 09:43:38;;;;;;;17.65;8.65;;;5.90;99.90;;;;;;5014552;28;20046;-71
2021/01/23 09:46:05;;;;;;;17.63;10.10;;;5.90;99.90;;;;;;5013614;28;20030;-71
2021/01/23 09:48:32;;;;;;;15.15;10.27;;;6.00;99.90;;;;;;5014970;28;20029;-71
2021/01/23 09:50:59;;;;;;;12.38;7.15;;;6.00;99.90;;;;;;5013663;28;20037;-71
2021/01/23 09:53:26;;;;;;;12.57;7.28;;;6.00;99.90;;;;;;4996972;28;20049;-72
2021/01/23 09:55:53;;;;;;;11.63;7.03;;;6.00;99.90;;;;;;5014410;28;20034;-72
2021/01/23 09:58:20;;;;;;;13.85;7.95;;;6.00;99.90;;;;;;5014616;28;20378;-72
2021/01/23 10:00:48;;;;;;;11.85;7.45;;;6.00;99.90;;;;;;5014452;28;20026;-71
2021/01/23 10:03:15;;;;;;;13.73;7.90;;;6.00;99.90;;;;;;5013443;28;20054;-72
2021/01/23 10:05:42;;;;;;;16.38;8.45;;;6.00;99.90;;;;;;5014264;28;20038;-71
2021/01/23 10:08:09;;;;;;;17.58;9.75;;;6.00;99.90;;;;;;5014854;28;20037;-71
2021/01/23 10:10:36;;;;;;;17.08;10.63;;;6.00;99.90;;;;;;5013963;28;20042;-71
2021/01/23 10:13:03;;;;;;;20.67;10.65;;;6.00;99.90;;;;;;4996175;28;20541;-72
2021/01/23 10:15:32;;;;;;;22.88;12.98;;;6.00;99.90;;;;;;5014654;28;20025;-72
2021/01/23 10:18:03;;;;;;;19.73;13.02;;;6.00;99.90;;;;;;5013686;28;20494;-72
2021/01/23 10:20:30;;;;;;;29.23;18.45;;;6.00;99.90;;;;;;5009867;28;20387;-71
2021/01/23 10:22:57;;;;;;;25.17;15.88;;;6.20;99.90;;;;;;5009390;28;20041;-72
2021/01/23 10:25:24;;;;;;;20.17;14.35;;;6.20;99.90;;;;;;5013918;28;20038;-72
2021/01/23 10:27:51;;;;;;;18.38;11.07;;;6.20;99.90;;;;;;5013969;28;20038;-71
2021/01/23 10:30:22;;;;;;;13.00;10.52;;;6.20;99.90;;;;;;5013092;28;20038;-72
2021/01/23 10:32:49;;;;;;;18.05;10.40;;;6.30;99.90;;;;;;5004545;28;20026;-72
2021/01/23 10:35:17;;;;;;;16.55;10.25;;;6.30;99.90;;;;;;5014369;28;20037;-71
2021/01/23 10:37:44;;;;;;;13.48;9.65;;;6.30;99.90;;;;;;5013769;28;20053;-72
2021/01/23 10:40:11;;;;;;;14.80;8.80;;;6.30;99.90;;;;;;5014429;28;20033;-72
2021/01/23 10:42:38;;;;;;;13.68;9.52;;;6.30;99.90;;;;;;4995499;28;20045;-72
2021/01/23 10:45:07;;;;;;;12.77;8.27;;;6.30;99.90;;;;;;5014034;28;20050;-72
2021/01/23 10:47:40;;;;;;;12.45;7.20;;;6.30;99.90;;;;;;5013218;28;20038;-72
2021/01/23 10:50:13;;;;;;;13.40;7.25;;;6.30;99.90;;;;;;5016033;28;20041;-72
2021/01/23 10:52:40;;;;;;;13.68;7.93;;;6.30;99.90;;;;;;5014536;28;20053;-71
2021/01/23 10:55:08;;;;;;;16.90;7.63;;;6.30;99.90;;;;;;5013959;28;20745;-71
2021/01/23 10:57:35;;;;;;;10.10;7.55;;;6.30;99.90;;;;;;5014196;28;20037;-72
2021/01/23 11:00:03;;;;;;;11.82;8.40;;;6.20;99.90;;;;;;5013079;28;20497;-71
2021/01/23 11:02:30;;;;;;;13.88;8.13;;;6.10;99.90;;;;;;5013526;28;20050;-71
2021/01/23 11:05:00;;;;;;;11.75;7.63;;;6.10;99.90;;;;;;5013302;28;20037;-71
2021/01/23 11:07:27;;;;;;;12.60;7.40;;;6.00;99.90;;;;;;5013505;28;20386;-71
2021/01/23 11:09:54;;;;;;;10.45;7.47;;;5.80;99.90;;;;;;4995613;28;20041;-71
2021/01/23 11:12:20;;;;;;;14.07;10.80;;;5.80;99.90;;;;;;5013472;28;20026;-71
2021/01/23 11:14:47;;;;;;;20.27;11.65;;;5.70;99.90;;;;;;5013310;28;20021;-70
2021/01/23 11:17:14;;;;;;;31.65;15.18;;;5.70;99.90;;;;;;5012763;28;20235;-71
2021/01/23 11:19:41;;;;;;;52.90;20.13;;;5.60;99.90;;;;;;5013030;28;20037;-72
2021/01/23 11:22:08;;;;;;;41.45;20.52;;;5.70;99.90;;;;;;5013190;28;20050;-73
2021/01/23 11:24:35;;;;;;;198.73;28.80;;;5.60;99.90;;;;;;5012351;28;20042;-71
2021/01/23 11:27:02;;;;;;;81.10;26.65;;;5.50;99.90;;;;;;5013291;28;20057;-73
2021/01/23 11:29:29;;;;;;;242.52;33.20;;;5.50;99.90;;;;;;5011913;28;20038;-73
2021/01/23 11:31:56;;;;;;;74.80;25.05;;;5.40;99.90;;;;;;5012462;28;20038;-73
2021/01/23 11:34:23;;;;;;;118.03;28.65;;;5.40;99.90;;;;;;5012841;28;20041;-71
2021/01/23 11:36:50;;;;;;;160.73;32.13;;;5.40;99.90;;;;;;5013117;28;20034;-70
2021/01/23 11:39:17;;;;;;;208.43;32.75;;;5.40;99.90;;;;;;5013020;28;20021;-71
2021/01/23 11:41:44;;;;;;;134.25;30.50;;;5.30;99.90;;;;;;5013492;28;20033;-71
2021/01/23 11:44:12;;;;;;;186.65;34.28;;;5.30;99.90;;;;;;5012255;28;20034;-70
2021/01/23 11:46:39;;;;;;;154.63;28.92;;;5.40;99.90;;;;;;4994414;28;20037;-71
2021/01/23 11:49:06;;;;;;;109.38;27.20;;;5.30;99.90;;;;;;5011448;28;20529;-71
2021/01/23 11:51:33;;;;;;;365.80;41.80;;;5.30;99.90;;;;;;5012177;28;20057;-70
2021/01/23 11:54:00;;;;;;;217.10;34.38;;;5.30;99.90;;;;;;5012247;28;20475;-71
2021/01/23 11:56:27;;;;;;;114.95;29.75;;;5.20;99.90;;;;;;5012203;28;20025;-71
2021/01/23 11:58:54;;;;;;;264.73;37.67;;;5.30;99.90;;;;;;5010214;28;20501;-70
2021/01/23 12:01:21;;;;;;;382.70;46.08;;;5.20;99.90;;;;;;5012352;28;20030;-71
2021/01/23 12:03:51;;;;;;;248.93;35.08;;;5.20;99.90;;;;;;5011372;28;20049;-71
2021/01/23 12:06:18;;;;;;;290.25;42.88;;;5.20;99.90;;;;;;5011769;28;20482;-71
2021/01/23 12:08:45;;;;;;;410.85;48.75;;;5.10;99.90;;;;;;5012367;28;20045;-70
2021/01/23 12:11:11;;;;;;;320.52;44.25;;;5.10;99.90;;;;;;5011563;28;20395;-71
2021/01/23 12:13:38;;;;;;;450.88;53.92;;;5.10;99.90;;;;;;5012245;28;20466;-70
2021/01/23 12:16:05;;;;;;;237.13;37.17;;;5.10;99.90;;;;;;5011904;28;20037;-69
2021/01/23 12:18:32;;;;;;;189.10;36.42;;;5.00;99.90;;;;;;5011903;28;20038;-69
2021/01/23 12:20:59;;;;;;;255.65;41.25;;;5.10;99.90;;;;;;5012310;28;20496;-70
2021/01/23 12:23:26;;;;;;;214.98;44.92;;;5.10;99.90;;;;;;5014515;28;20429;-72
2021/01/23 12:25:54;;;;;;;124.60;36.70;;;5.10;99.90;;;;;;5012150;28;20025;-69
2021/01/23 12:28:21;;;;;;;97.00;34.83;;;5.10;99.90;;;;;;5010881;28;20042;-70
2021/01/23 12:30:48;;;;;;;333.13;54.72;;;5.20;99.90;;;;;;5011888;28;20026;-71
2021/01/23 12:33:14;;;;;;;284.95;47.28;;;5.10;99.90;;;;;;5012039;28;20029;-70
2021/01/23 12:35:41;;;;;;;87.32;36.45;;;5.10;99.90;;;;;;5010830;28;20034;-71
2021/01/23 12:38:08;;;;;;;394.70;56.80;;;5.20;99.90;;;;;;5011144;28;20041;-71
2021/01/23 12:40:35;;;;;;;124.47;41.25;;;5.20;99.90;;;;;;5010461;28;20374;-70
2021/01/23 12:43:02;;;;;;;82.57;39.35;;;5.20;99.90;;;;;;5011656;28;20029;-71
2021/01/23 12:45:29;;;;;;;102.13;41.50;;;5.20;99.90;;;;;;5011549;28;20050;-70
2021/01/23 12:47:56;;;;;;;88.50;40.50;;;5.20;99.90;;;;;;5011595;28;20037;-70
2021/01/23 12:50:23;;;;;;;84.25;39.95;;;5.20;99.90;;;;;;5011430;28;20474;-70
2021/01/23 12:52:50;;;;;;;76.20;39.88;;;5.20;99.90;;;;;;5011849;28;20390;-71
2021/01/23 12:55:17;;;;;;;77.72;38.42;;;5.30;99.90;;;;;;5010967;28;20117;-71
2021/01/23 12:57:44;;;;;;;80.40;39.10;;;5.20;99.90;;;;;;5010057;28;20033;-71
2021/01/23 13:00:12;;;;;;;89.20;43.33;;;5.30;99.90;;;;;;5010107;28;20026;-70